Time;durP1;ratioP1;P1;durP2;ratioP2;P2;SDS_P1;SDS_P2;PMS_P1;PMS_P2;Temp;Humidity;BMP_temperature;BMP_pressure;BME280_temperature;BME280_humidity;BME280_pressure;Samples;Min_cycle;Max_cycle;Signal;HPM_P1;HPM_P2
2022/09/24 00:01:33;;;;;;;52.03;38.42;;;13.40;99.90;;;;;;4938181;29;20554;-85
2022/09/24 00:04:03;;;;;;;49.80;38.47;;;13.40;99.90;;;;;;4937778;29;20051;-84
2022/09/24 00:06:32;;;;;;;50.53;38.30;;;13.40;99.90;;;;;;4954797;29;20074;-84
2022/09/24 00:08:57;;;;;;;52.50;40.15;;;13.40;99.90;;;;;;4955157;29;20042;-85
2022/09/24 00:11:27;;;;;;;52.13;38.63;;;13.40;99.90;;;;;;4955009;29;20391;-85
2022/09/24 00:13:54;;;;;;;52.75;38.50;;;13.40;99.90;;;;;;4938073;29;20447;-86
2022/09/24 00:16:22;;;;;;;53.58;37.10;;;13.40;99.90;;;;;;4940429;29;20055;-85
2022/09/24 00:18:48;;;;;;;50.60;37.70;;;13.50;99.90;;;;;;4958670;29;20047;-85
2022/09/24 00:21:16;;;;;;;53.03;39.50;;;13.50;99.90;;;;;;4958544;29;20043;-84
2022/09/24 00:23:42;;;;;;;53.47;39.20;;;13.50;99.90;;;;;;4941117;29;20043;-84
2022/09/24 00:28:56;;;;;;;58.00;41.53;;;13.50;99.90;;;;;;4958401;29;20065;-85
2022/09/24 00:31:22;;;;;;;54.92;41.10;;;13.50;99.90;;;;;;4958777;29;20054;-85
2022/09/24 00:33:51;;;;;;;46.53;35.13;;;13.50;99.90;;;;;;4958293;29;20057;-85
2022/09/24 00:36:17;;;;;;;51.90;37.28;;;13.40;99.90;;;;;;4958269;29;20069;-84
2022/09/24 00:38:43;;;;;;;52.20;38.92;;;13.50;99.90;;;;;;4958078;29;20486;-84
2022/09/24 00:41:08;;;;;;;47.35;37.40;;;13.50;99.90;;;;;;4958326;29;20071;-84
2022/09/24 00:43:38;;;;;;;46.85;36.70;;;13.50;99.90;;;;;;4958003;29;20090;-84
2022/09/24 00:46:25;;;;;;;49.72;36.83;;;13.50;99.90;;;;;;4940753;29;20059;-84
2022/09/24 00:49:04;;;;;;;48.63;36.00;;;13.40;99.90;;;;;;4940999;29;20129;-85
2022/09/24 00:51:31;;;;;;;47.10;34.88;;;13.40;99.90;;;;;;4940704;29;20043;-85
2022/09/24 00:54:02;;;;;;;46.63;35.65;;;13.40;99.90;;;;;;4940682;29;20514;-84
2022/09/24 00:56:31;;;;;;;50.72;38.33;;;13.40;99.90;;;;;;4957865;29;20487;-84
2022/09/24 00:59:01;;;;;;;47.10;36.22;;;13.30;99.90;;;;;;4940783;29;20043;-84
2022/09/24 01:01:28;;;;;;;49.85;36.15;;;13.40;99.90;;;;;;4957637;29;20127;-84
2022/09/24 01:03:56;;;;;;;48.20;32.95;;;13.40;99.90;;;;;;4940643;29;20055;-84
2022/09/24 01:06:22;;;;;;;43.58;31.95;;;13.40;99.90;;;;;;4957392;29;20142;-84
2022/09/24 01:08:48;;;;;;;36.22;27.17;;;13.50;99.90;;;;;;4940601;29;20087;-84
2022/09/24 01:11:45;;;;;;;33.47;23.00;;;13.60;99.90;;;;;;4940220;29;20090;-85
2022/09/24 01:14:40;;;;;;;19.88;14.10;;;13.60;99.90;;;;;;4940489;29;20130;-85
2022/09/24 01:17:43;;;;;;;13.23;7.70;;;13.70;99.90;;;;;;4892759;29;20098;-84
2022/09/24 01:20:42;;;;;;;9.88;3.28;;;13.80;99.90;;;;;;4957376;29;20129;-85
2022/09/24 01:23:29;;;;;;;5.15;2.08;;;13.90;99.90;;;;;;4940012;29;20051;-85
2022/09/24 01:25:58;;;;;;;6.40;1.52;;;14.00;99.90;;;;;;4957115;29;20541;-85
2022/09/24 01:29:12;;;;;;;5.82;1.20;;;14.00;99.90;;;;;;4956689;28;20051;-85
2022/09/24 01:31:49;;;;;;;7.82;1.45;;;14.10;99.90;;;;;;4957287;29;20109;-85
2022/09/24 01:34:23;;;;;;;4.75;1.25;;;14.10;99.90;;;;;;4940198;29;20071;-85
2022/09/24 01:36:51;;;;;;;7.18;1.20;;;14.20;99.90;;;;;;4940192;29;20047;-85
2022/09/24 01:39:24;;;;;;;8.32;1.65;;;14.20;99.90;;;;;;4939878;29;20091;-85
2022/09/24 01:41:51;;;;;;;4.95;1.00;;;14.20;99.90;;;;;;4957005;29;20387;-86
2022/09/24 01:44:17;;;;;;;5.57;1.30;;;14.20;99.90;;;;;;4956776;29;20047;-84
2022/09/24 01:46:43;;;;;;;4.93;1.60;;;14.20;99.90;;;;;;4956932;29;20126;-84
2022/09/24 01:49:09;;;;;;;4.38;1.20;;;14.20;99.90;;;;;;4956967;29;20042;-84
2022/09/24 01:51:42;;;;;;;6.20;1.55;;;14.20;99.90;;;;;;4956796;29;20398;-84
2022/09/24 01:54:16;;;;;;;7.97;1.63;;;14.20;99.90;;;;;;4957005;29;20511;-84
2022/09/24 01:57:06;;;;;;;8.02;1.70;;;14.30;99.90;;;;;;4939873;29;20126;-85
2022/09/24 01:59:48;;;;;;;5.85;1.67;;;14.30;99.90;;;;;;4956663;29;20487;-85
2022/09/24 02:02:38;;;;;;;7.75;2.10;;;14.30;99.90;;;;;;4939747;29;20054;-84
2022/09/24 02:05:20;;;;;;;15.13;2.10;;;14.20;99.90;;;;;;4939307;29;20125;-85
2022/09/24 02:08:19;;;;;;;10.50;2.03;;;14.30;99.90;;;;;;4956299;29;20055;-84
2022/09/24 02:10:55;;;;;;;5.00;1.20;;;14.30;99.90;;;;;;4956508;29;20051;-85
2022/09/24 02:13:24;;;;;;;9.38;1.85;;;14.30;99.90;;;;;;4939314;29;20085;-85
2022/09/24 02:15:55;;;;;;;11.73;2.10;;;14.30;99.90;;;;;;4939050;29;20514;-84
2022/09/24 02:18:27;;;;;;;9.75;1.45;;;14.40;99.90;;;;;;4956442;29;20118;-85
2022/09/24 02:20:54;;;;;;;11.75;1.60;;;14.30;99.90;;;;;;4939164;29;20526;-84
2022/09/24 02:23:20;;;;;;;9.52;1.55;;;14.30;99.90;;;;;;4938876;29;20055;-85
2022/09/24 02:26:02;;;;;;;7.53;1.67;;;14.40;99.90;;;;;;4938976;29;20058;-84
2022/09/24 02:28:29;;;;;;;9.30;1.40;;;14.40;99.90;;;;;;4956263;29;20090;-85
2022/09/24 02:31:04;;;;;;;3.97;0.98;;;14.40;99.90;;;;;;4939109;29;20502;-84
2022/09/24 02:36:17;;;;;;;8.63;1.75;;;14.40;99.90;;;;;;4955844;29;20059;-86
2022/09/24 02:38:45;;;;;;;7.38;1.20;;;14.30;99.90;;;;;;4955668;28;20043;-85
2022/09/24 02:41:12;;;;;;;6.55;1.17;;;14.30;99.90;;;;;;4939008;29;20062;-85
2022/09/24 02:43:39;;;;;;;7.90;1.33;;;14.30;99.90;;;;;;4956409;29;20051;-85
2022/09/24 02:46:08;;;;;;;7.18;1.30;;;14.30;99.90;;;;;;4955910;29;20506;-85
2022/09/24 02:48:35;;;;;;;8.20;1.48;;;14.40;99.90;;;;;;4955904;29;20066;-84
2022/09/24 02:51:03;;;;;;;12.48;1.40;;;14.30;99.90;;;;;;4955903;29;20043;-86
2022/09/24 02:53:29;;;;;;;7.78;1.27;;;14.30;99.90;;;;;;4955741;29;20059;-85
2022/09/24 02:55:55;;;;;;;8.60;1.27;;;14.30;99.90;;;;;;4955863;29;20045;-84
2022/09/24 02:58:20;;;;;;;8.70;1.73;;;14.40;99.90;;;;;;4938545;29;20130;-84
2022/09/24 03:00:46;;;;;;;8.55;1.08;;;14.40;99.90;;;;;;4955780;29;20040;-83
2022/09/24 03:03:12;;;;;;;8.77;1.30;;;14.40;99.90;;;;;;4955727;29;20066;-84
2022/09/24 03:05:37;;;;;;;6.68;1.08;;;14.40;99.90;;;;;;4938172;29;20077;-84
2022/09/24 03:08:04;;;;;;;8.45;1.30;;;14.50;99.90;;;;;;4938407;29;20051;-83
2022/09/24 03:10:30;;;;;;;7.22;1.50;;;14.40;99.90;;;;;;4955682;29;20106;-84
2022/09/24 03:12:56;;;;;;;11.50;1.30;;;14.40;99.90;;;;;;4955631;29;20439;-84
2022/09/24 03:15:21;;;;;;;8.27;1.55;;;14.40;99.90;;;;;;4938409;29;20138;-85
2022/09/24 03:17:47;;;;;;;5.82;1.23;;;14.40;99.90;;;;;;4955537;29;20039;-84
2022/09/24 03:20:12;;;;;;;5.45;1.58;;;14.40;99.90;;;;;;4955416;29;20383;-82
2022/09/24 03:22:38;;;;;;;8.90;1.90;;;14.40;99.90;;;;;;4955571;29;20043;-84
2022/09/24 03:25:07;;;;;;;7.45;1.65;;;14.40;99.90;;;;;;4955513;29;20054;-84
2022/09/24 03:27:36;;;;;;;8.43;1.80;;;14.40;99.90;;;;;;4955451;29;20131;-84
2022/09/24 03:32:47;;;;;;;10.48;1.80;;;14.40;99.90;;;;;;4955484;29;20057;-85
2022/09/24 03:35:14;;;;;;;10.50;1.80;;;14.40;99.90;;;;;;4938373;29;20058;-85
2022/09/24 03:37:42;;;;;;;8.18;1.80;;;14.40;99.90;;;;;;4955426;29;20055;-84
2022/09/24 03:40:08;;;;;;;11.40;1.92;;;14.40;99.90;;;;;;4938148;29;20406;-84
2022/09/24 03:42:34;;;;;;;7.85;1.75;;;14.40;99.90;;;;;;4938197;29;20051;-84
2022/09/24 03:45:00;;;;;;;8.07;1.60;;;14.40;99.90;;;;;;4955233;29;20126;-85
2022/09/24 03:47:25;;;;;;;10.40;1.90;;;14.30;99.90;;;;;;4955325;29;20125;-84
2022/09/24 03:49:52;;;;;;;10.35;1.80;;;14.40;99.90;;;;;;4955485;28;20067;-84
2022/09/24 03:52:18;;;;;;;9.70;1.80;;;14.30;99.90;;;;;;4959080;29;20054;-84
2022/09/24 03:54:43;;;;;;;9.90;1.98;;;14.30;99.90;;;;;;4941794;29;20051;-83
2022/09/24 03:57:13;;;;;;;8.70;1.85;;;14.30;99.90;;;;;;4942066;29;20051;-85
2022/09/24 03:59:39;;;;;;;7.35;1.92;;;14.30;99.90;;;;;;4958899;29;20059;-84
2022/09/24 04:02:05;;;;;;;6.50;1.45;;;14.30;99.90;;;;;;4958916;29;20126;-84
2022/09/24 04:04:30;;;;;;;10.35;1.63;;;14.30;99.90;;;;;;4958833;29;20126;-84
2022/09/24 04:06:57;;;;;;;7.65;1.23;;;14.30;99.90;;;;;;4941282;29;20411;-84
2022/09/24 04:09:22;;;;;;;7.15;1.55;;;14.30;99.90;;;;;;4941484;29;20069;-84
2022/09/24 04:11:48;;;;;;;8.52;1.30;;;14.30;99.90;;;;;;4941570;29;20472;-85
2022/09/24 04:14:14;;;;;;;11.20;1.45;;;14.30;99.90;;;;;;4941268;29;20035;-85
2022/09/24 04:16:39;;;;;;;9.02;1.95;;;14.20;99.90;;;;;;4958435;29;20051;-85
2022/09/24 04:19:06;;;;;;;7.15;1.08;;;14.20;99.90;;;;;;4958662;29;20045;-84
2022/09/24 04:21:32;;;;;;;9.80;1.58;;;14.20;99.90;;;;;;4941542;29;20051;-85
2022/09/24 04:23:58;;;;;;;4.75;1.00;;;14.20;99.90;;;;;;4958547;29;20380;-84
2022/09/24 04:26:23;;;;;;;6.38;1.05;;;14.20;99.90;;;;;;4941247;29;20047;-85
2022/09/24 04:28:49;;;;;;;10.02;1.35;;;14.20;99.90;;;;;;4941167;29;20043;-84
2022/09/24 04:31:15;;;;;;;9.93;1.83;;;14.20;99.90;;;;;;4940933;29;20656;-84
2022/09/24 04:33:40;;;;;;;4.05;1.00;;;14.10;99.90;;;;;;4958342;29;20046;-84
2022/09/24 04:36:06;;;;;;;5.90;1.30;;;14.20;99.90;;;;;;4941199;29;20102;-84
2022/09/24 04:38:32;;;;;;;6.65;1.30;;;14.20;99.90;;;;;;4958273;29;20039;-85
2022/09/24 04:41:05;;;;;;;11.40;1.45;;;14.20;99.90;;;;;;4958173;29;20055;-85
2022/09/24 04:43:32;;;;;;;6.55;1.38;;;14.20;99.90;;;;;;4958633;29;20547;-85
2022/09/24 04:45:58;;;;;;;10.98;1.40;;;14.20;99.90;;;;;;4940910;29;20130;-85
2022/09/24 04:48:24;;;;;;;6.30;1.48;;;14.20;99.90;;;;;;4958091;29;20118;-84
2022/09/24 04:50:49;;;;;;;6.90;1.25;;;14.20;99.90;;;;;;4940751;29;20051;-84
2022/09/24 04:53:16;;;;;;;7.50;1.40;;;14.20;99.90;;;;;;4957933;29;20054;-85
2022/09/24 04:55:43;;;;;;;7.72;1.80;;;14.20;99.90;;;;;;4957876;29;20047;-84
2022/09/24 04:58:08;;;;;;;10.65;1.58;;;14.20;99.90;;;;;;4957629;29;20098;-84
2022/09/24 05:00:34;;;;;;;7.75;1.38;;;14.20;99.90;;;;;;4957877;29;20130;-85
2022/09/24 05:03:03;;;;;;;6.97;1.10;;;14.20;99.90;;;;;;4939708;29;20047;-85
2022/09/24 05:05:31;;;;;;;10.10;1.40;;;14.20;99.90;;;;;;4957447;29;20044;-84
2022/09/24 05:07:57;;;;;;;6.95;1.38;;;14.20;99.90;;;;;;4957652;29;20431;-87
2022/09/24 05:10:24;;;;;;;9.52;1.52;;;14.20;99.90;;;;;;4957641;29;20053;-86
2022/09/24 05:12:49;;;;;;;8.13;1.33;;;14.20;99.90;;;;;;4940569;29;20066;-85
2022/09/24 05:15:17;;;;;;;8.77;1.55;;;14.20;99.90;;;;;;4957622;29;20036;-85
2022/09/24 05:17:44;;;;;;;9.25;1.70;;;14.20;99.90;;;;;;4940271;29;20429;-85
2022/09/24 05:20:13;;;;;;;10.82;1.67;;;14.20;99.90;;;;;;4940268;29;20047;-86
2022/09/24 05:22:48;;;;;;;9.90;1.63;;;14.20;99.90;;;;;;4940608;29;20505;-85
2022/09/24 05:25:15;;;;;;;7.15;1.40;;;14.20;99.90;;;;;;4957310;29;20043;-85
2022/09/24 05:27:48;;;;;;;8.10;1.60;;;14.20;99.90;;;;;;4957298;29;20066;-85
2022/09/24 05:30:15;;;;;;;8.73;1.63;;;14.20;99.90;;;;;;4939965;29;20074;-85
2022/09/24 05:32:41;;;;;;;9.45;1.33;;;14.20;99.90;;;;;;4939371;29;20102;-85
2022/09/24 05:35:07;;;;;;;7.90;1.48;;;14.20;99.90;;;;;;4939014;29;20051;-87
2022/09/24 05:37:33;;;;;;;9.93;1.50;;;14.20;99.90;;;;;;4956852;29;20043;-85
2022/09/24 05:40:46;;;;;;;14.23;2.45;;;14.20;99.90;;;;;;4940039;29;20083;-87
2022/09/24 05:42:45;;;;;;;7.68;1.40;;;14.20;99.90;;;;;;4956781;29;20066;-85
2022/09/24 05:45:14;;;;;;;8.50;1.33;;;14.20;99.90;;;;;;4939456;29;20458;-86
2022/09/24 05:47:40;;;;;;;9.43;1.33;;;14.20;99.90;;;;;;4956718;29;20055;-87
2022/09/24 05:50:06;;;;;;;8.77;1.13;;;14.20;99.90;;;;;;4956872;29;20585;-85
2022/09/24 05:52:32;;;;;;;8.20;1.73;;;14.20;99.90;;;;;;4956836;29;20035;-86
2022/09/24 05:54:57;;;;;;;7.45;1.33;;;14.20;99.90;;;;;;4956487;29;20069;-85
2022/09/24 05:57:23;;;;;;;7.60;1.00;;;14.20;99.90;;;;;;4956758;29;20047;-87
2022/09/24 05:59:48;;;;;;;8.23;1.05;;;14.30;99.90;;;;;;4938184;29;20063;-84
2022/09/24 06:02:14;;;;;;;8.70;1.75;;;14.30;99.90;;;;;;4939171;29;20078;-85
2022/09/24 06:04:40;;;;;;;6.45;1.08;;;14.30;99.90;;;;;;4956472;29;20130;-86
2022/09/24 06:07:09;;;;;;;10.52;1.52;;;14.30;99.90;;;;;;4935818;29;20094;-84
2022/09/24 06:09:35;;;;;;;9.07;1.33;;;14.30;99.90;;;;;;4937316;29;20127;-85
2022/09/24 06:12:09;;;;;;;6.88;1.00;;;14.30;99.90;;;;;;4937164;29;20142;-85
2022/09/24 06:14:35;;;;;;;7.03;1.45;;;14.30;99.90;;;;;;4937095;29;20047;-86
2022/09/24 06:17:01;;;;;;;6.60;0.98;;;14.20;99.90;;;;;;4937289;29;20123;-84
2022/09/24 06:19:27;;;;;;;6.40;1.05;;;14.30;99.90;;;;;;4937251;29;20123;-85
2022/09/24 06:21:52;;;;;;;4.57;0.73;;;14.30;99.90;;;;;;4935817;29;20122;-84
2022/09/24 06:24:18;;;;;;;6.45;1.02;;;14.30;99.90;;;;;;4937016;29;20091;-84
2022/09/24 06:26:43;;;;;;;7.45;1.02;;;14.30;99.90;;;;;;4935606;29;20078;-85
2022/09/24 06:29:09;;;;;;;6.13;0.95;;;14.30;99.90;;;;;;4935615;29;20157;-86
2022/09/24 06:31:35;;;;;;;7.18;1.50;;;14.30;99.90;;;;;;4935517;29;20051;-86
2022/09/24 06:34:01;;;;;;;3.38;0.80;;;14.40;99.90;;;;;;4936980;29;20044;-85
2022/09/24 06:36:28;;;;;;;4.10;0.70;;;14.40;99.90;;;;;;4936722;29;20052;-85
2022/09/24 06:38:53;;;;;;;4.90;0.90;;;14.40;99.90;;;;;;4935928;29;20056;-84
2022/09/24 06:41:19;;;;;;;3.60;0.55;;;14.40;99.90;;;;;;4936875;29;20051;-86
2022/09/24 06:43:45;;;;;;;5.03;0.60;;;14.50;99.90;;;;;;4935608;29;20089;-86
2022/09/24 06:46:14;;;;;;;4.13;0.50;;;14.50;99.90;;;;;;4936441;29;20511;-85
2022/09/24 06:48:40;;;;;;;3.40;0.50;;;14.50;99.90;;;;;;4936407;29;20055;-86
2022/09/24 06:51:06;;;;;;;4.45;0.57;;;14.50;99.90;;;;;;4927969;29;20059;-86
2022/09/24 06:53:32;;;;;;;4.32;0.70;;;14.50;99.90;;;;;;4900266;29;20047;-87
2022/09/24 06:55:58;;;;;;;2.70;0.55;;;14.50;99.90;;;;;;4917366;29;20048;-83
2022/09/24 06:58:24;;;;;;;8.45;1.00;;;14.50;99.90;;;;;;4903853;29;20408;-87
2022/09/24 07:00:57;;;;;;;4.30;0.88;;;14.50;99.90;;;;;;4906789;29;20381;-86
2022/09/24 07:03:24;;;;;;;5.25;0.73;;;14.50;99.90;;;;;;4900350;29;20044;-85
2022/09/24 07:05:49;;;;;;;6.30;1.08;;;14.50;99.90;;;;;;4917204;29;20088;-87
2022/09/24 07:08:18;;;;;;;5.78;1.10;;;14.50;99.90;;;;;;4900438;29;20044;-88
2022/09/24 07:10:45;;;;;;;5.13;0.98;;;14.60;99.90;;;;;;4899913;29;20078;-88
2022/09/24 07:13:17;;;;;;;4.40;0.80;;;14.60;99.90;;;;;;4917109;29;20472;-85
2022/09/24 07:15:44;;;;;;;7.80;0.90;;;14.70;99.90;;;;;;4917345;29;20063;-86
2022/09/24 07:18:11;;;;;;;6.10;0.88;;;14.60;99.90;;;;;;4917032;29;20101;-84
2022/09/24 07:20:36;;;;;;;5.53;1.10;;;14.70;99.90;;;;;;4917218;29;20053;-87
2022/09/24 07:23:07;;;;;;;8.05;1.23;;;14.70;99.90;;;;;;4900120;29;20505;-86
2022/09/24 07:25:34;;;;;;;8.60;1.10;;;14.70;99.90;;;;;;4918231;29;20052;-85
2022/09/24 07:28:05;;;;;;;7.07;1.15;;;14.70;99.90;;;;;;4921158;29;20107;-86
2022/09/24 07:30:32;;;;;;;8.18;2.05;;;14.70;99.90;;;;;;4921150;29;20075;-84
2022/09/24 07:32:58;;;;;;;10.93;1.52;;;14.70;99.90;;;;;;4920545;29;20523;-88
2022/09/24 07:35:25;;;;;;;7.78;1.60;;;14.70;99.90;;;;;;4920708;29;20076;-85
2022/09/24 07:38:01;;;;;;;6.38;1.63;;;14.80;99.90;;;;;;4920888;29;20048;-82
2022/09/24 07:40:28;;;;;;;9.65;1.45;;;14.80;99.90;;;;;;4903915;29;20058;-85
2022/09/24 07:42:54;;;;;;;7.43;1.35;;;14.80;99.90;;;;;;4920640;29;20044;-84
2022/09/24 07:45:21;;;;;;;10.50;1.50;;;14.80;99.90;;;;;;4920523;29;20400;-79
2022/09/24 07:47:54;;;;;;;9.77;1.95;;;14.80;99.90;;;;;;4903657;29;20062;-82
2022/09/24 07:50:21;;;;;;;9.65;1.63;;;14.80;99.90;;;;;;4903844;29;20473;-83
2022/09/24 07:52:49;;;;;;;10.68;2.17;;;14.80;99.90;;;;;;4920527;29;20048;-82
2022/09/24 07:55:15;;;;;;;10.63;1.48;;;14.90;99.90;;;;;;4920590;29;20044;-85
2022/09/24 07:57:46;;;;;;;10.55;1.40;;;14.90;99.90;;;;;;4904080;29;20114;-85
2022/09/24 08:00:12;;;;;;;12.30;1.60;;;14.90;99.90;;;;;;4920676;29;20068;-83
2022/09/24 08:02:38;;;;;;;11.77;2.08;;;14.90;99.90;;;;;;4920275;29;20052;-87
2022/09/24 08:05:04;;;;;;;9.90;1.52;;;14.90;99.90;;;;;;4903248;29;20048;-84
2022/09/24 08:07:30;;;;;;;10.13;1.40;;;14.90;99.90;;;;;;4915761;29;20059;-88
2022/09/24 08:09:56;;;;;;;6.88;1.85;;;14.90;99.90;;;;;;4920057;29;20389;-85
2022/09/24 08:12:25;;;;;;;7.72;0.80;;;15.00;99.90;;;;;;4930955;29;20044;-85
2022/09/24 08:14:51;;;;;;;5.32;1.05;;;15.00;99.90;;;;;;4939153;29;20052;-86
2022/09/24 08:17:16;;;;;;;6.35;0.90;;;15.00;99.90;;;;;;4939181;29;20044;-85
2022/09/24 08:19:45;;;;;;;5.30;0.80;;;14.90;99.90;;;;;;4939021;29;20187;-85
2022/09/24 08:22:11;;;;;;;7.22;1.15;;;14.90;99.90;;;;;;4937566;29;20179;-84
2022/09/24 08:24:43;;;;;;;8.68;1.00;;;14.80;99.90;;;;;;4937910;29;20071;-83
2022/09/24 08:27:08;;;;;;;5.35;0.88;;;14.80;99.90;;;;;;4938913;29;20055;-86
2022/09/24 08:29:34;;;;;;;6.82;0.93;;;14.70;99.90;;;;;;4937710;29;20059;-85
2022/09/24 08:32:00;;;;;;;4.75;1.10;;;14.70;99.90;;;;;;4937558;29;20404;-84
2022/09/24 08:34:26;;;;;;;6.00;1.13;;;14.80;99.90;;;;;;4938918;29;20051;-83
2022/09/24 08:36:52;;;;;;;8.93;1.25;;;14.80;99.90;;;;;;4938854;29;20409;-84
2022/09/24 08:39:17;;;;;;;7.95;1.65;;;14.90;99.90;;;;;;4937745;29;20404;-85
2022/09/24 08:41:56;;;;;;;8.38;1.40;;;15.00;99.90;;;;;;4937133;29;20067;-84
2022/09/24 08:47:36;;;;;;;8.60;1.35;;;15.10;99.90;;;;;;4937717;29;20313;-85
2022/09/24 08:50:30;;;;;;;6.55;1.50;;;15.20;99.90;;;;;;4936186;29;20039;-85
2022/09/24 08:53:06;;;;;;;5.35;1.00;;;15.20;99.90;;;;;;4934400;29;20071;-86
2022/09/24 08:55:37;;;;;;;7.60;0.90;;;15.30;99.90;;;;;;4937176;29;20055;-86
2022/09/24 08:58:09;;;;;;;6.85;1.40;;;15.30;99.90;;;;;;4937181;29;20051;-85
2022/09/24 09:01:05;;;;;;;9.38;1.23;;;15.30;99.90;;;;;;4937521;29;20607;-84
2022/09/24 09:04:03;;;;;;;3.97;1.00;;;15.30;99.90;;;;;;4926251;29;20590;-86
2022/09/24 09:07:00;;;;;;;4.97;1.40;;;15.30;99.90;;;;;;4936560;29;20422;-86
2022/09/24 09:09:47;;;;;;;6.15;0.65;;;15.40;99.90;;;;;;4938318;29;20102;-84
2022/09/24 09:12:43;;;;;;;8.57;1.15;;;15.50;99.90;;;;;;4938426;29;20115;-85
2022/09/24 09:19:27;;;;;;;4.35;0.75;;;15.50;99.90;;;;;;4878397;29;20060;-86
2022/09/24 09:48:15;;;;;;;8.35;1.33;;;16.30;99.90;;;;;;4955378;28;20451;-85
2022/09/24 09:51:29;;;;;;;6.05;1.10;;;16.40;99.90;;;;;;4941665;29;20081;-86
2022/09/24 09:57:35;;;;;;;4.82;0.82;;;16.40;99.90;;;;;;4956745;29;20086;-86
2022/09/24 10:00:39;;;;;;;7.22;0.80;;;16.60;99.90;;;;;;4955217;29;20093;-85
2022/09/24 10:10:02;;;;;;;7.10;1.10;;;16.70;99.90;;;;;;4956448;29;20046;-86
2022/09/24 10:16:55;;;;;;;6.43;1.20;;;16.60;99.90;;;;;;4934315;29;20051;-85
2022/09/24 10:20:30;;;;;;;;;;;;;;;;;;;;;
2022/09/24 10:30:59;;;;;;;6.80;0.98;;;16.40;99.90;;;;;;4919848;29;20055;-85
2022/09/24 10:34:38;;;;;;;8.35;1.35;;;16.20;99.90;;;;;;4859902;29;20465;-86
2022/09/24 10:40:41;;;;;;;8.00;1.15;;;16.20;99.90;;;;;;4843964;29;20056;-85
2022/09/24 10:43:21;;;;;;;4.50;1.10;;;16.20;99.90;;;;;;4844083;29;20125;-82
2022/09/24 10:50:16;;;;;;;6.43;1.10;;;16.00;99.90;;;;;;4859640;29;20039;-81
2022/09/24 10:53:33;;;;;;;7.97;1.40;;;16.00;99.90;;;;;;4936070;29;20096;-82
2022/09/24 10:56:17;;;;;;;5.68;1.30;;;16.00;99.90;;;;;;4933324;29;20063;-83
2022/09/24 10:59:17;;;;;;;6.35;0.95;;;16.00;99.90;;;;;;4936369;29;20498;-82
2022/09/24 11:06:05;;;;;;;4.43;0.80;;;15.90;99.90;;;;;;4936339;29;20067;-85
2022/09/24 11:28:08;;;;;;;14.02;2.38;;;15.80;99.90;;;;;;4916827;29;20553;-83
2022/09/24 11:31:14;;;;;;;3.95;0.70;;;15.80;99.90;;;;;;4917251;29;20139;-81
2022/09/24 11:33:58;;;;;;;7.78;1.40;;;15.80;99.90;;;;;;4916744;29;20485;-81
2022/09/24 11:37:13;;;;;;;5.93;1.27;;;15.80;99.90;;;;;;4900104;29;20052;-79
2022/09/24 11:40:46;;;;;;;4.70;0.88;;;15.80;99.90;;;;;;4825095;29;20073;-80
2022/09/24 11:43:42;;;;;;;6.15;1.02;;;15.80;99.90;;;;;;4838710;29;20051;-77
2022/09/24 11:55:59;;;;;;;3.28;0.63;;;15.90;99.90;;;;;;4917980;29;20047;-86
2022/09/24 12:06:00;;;;;;;5.45;0.65;;;16.10;99.90;;;;;;4920187;29;20039;-79
2022/09/24 12:23:50;;;;;;;6.28;0.70;;;16.80;99.90;;;;;;4846529;29;20450;-85
2022/09/24 12:26:35;;;;;;;5.88;0.73;;;17.10;99.90;;;;;;4902416;29;20150;-86
2022/09/24 12:33:00;;;;;;;11.43;2.95;;;17.50;99.90;;;;;;4921859;29;20087;-84
2022/09/24 12:35:57;;;;;;;;;;;17.60;99.90;;;;;;4939072;29;20631;-85
2022/09/24 12:39:13;;;;;;;4.72;1.13;;;17.50;99.90;;;;;;4938832;29;20321;-86
2022/09/24 12:41:53;;;;;;;10.00;4.97;;;17.60;99.90;;;;;;4922134;29;20077;-86
2022/09/24 12:47:59;;;;;;;4.63;1.15;;;17.60;99.90;;;;;;4938371;29;20507;-82
2022/09/24 12:50:27;;;;;;;8.75;1.05;;;17.60;99.90;;;;;;4921626;29;20494;-84
2022/09/24 13:58:34;;;;;;;4.78;0.57;;;18.60;99.90;;;;;;4898331;29;20095;-84
2022/09/24 14:01:23;;;;;;;2.33;0.40;;;18.70;99.90;;;;;;4897987;29;20087;-87
2022/09/24 14:07:20;;;;;;;4.07;0.60;;;18.70;99.90;;;;;;4877080;29;20131;-85
2022/09/24 14:10:18;;;;;;;6.05;0.80;;;18.60;99.90;;;;;;4863016;29;20136;-85
2022/09/24 14:12:44;;;;;;;7.53;0.80;;;18.60;99.90;;;;;;4863112;29;20514;-86
2022/09/24 14:19:04;;;;;;;7.40;2.05;;;18.60;99.90;;;;;;4877610;29;20048;-87
2022/09/24 15:08:27;;;;;;;5.88;1.15;;;18.00;99.90;;;;;;4941476;28;20124;-86
2022/09/24 15:10:55;;;;;;;5.45;0.68;;;17.90;99.90;;;;;;4914540;29;20055;-86
2022/09/24 15:13:40;;;;;;;4.18;0.80;;;17.90;99.90;;;;;;4936227;29;20054;-88
2022/09/24 15:16:20;;;;;;;4.15;0.60;;;17.80;99.90;;;;;;4918660;29;20480;-86
2022/09/24 15:19:12;;;;;;;5.13;0.98;;;17.70;99.90;;;;;;4936358;29;20043;-85
2022/09/24 15:21:38;;;;;;;4.82;0.90;;;17.60;99.90;;;;;;4909486;29;20138;-85
2022/09/24 15:24:04;;;;;;;7.22;1.05;;;17.50;99.90;;;;;;4936450;29;20547;-87
2022/09/24 15:26:35;;;;;;;6.70;0.80;;;17.40;99.90;;;;;;4919126;29;20051;-86
2022/09/24 15:29:01;;;;;;;7.60;0.68;;;17.40;99.90;;;;;;4936190;29;20058;-84
2022/09/24 15:31:30;;;;;;;3.53;0.82;;;17.30;99.90;;;;;;4919252;29;20044;-87
2022/09/24 15:33:58;;;;;;;2.00;0.50;;;17.30;99.90;;;;;;4936218;29;20134;-85
2022/09/24 15:36:24;;;;;;;5.57;0.77;;;17.30;99.90;;;;;;4936128;29;20126;-86
2022/09/24 15:38:51;;;;;;;4.00;0.60;;;17.20;99.90;;;;;;4919218;29;20082;-88
2022/09/24 15:41:18;;;;;;;4.80;1.00;;;17.10;99.90;;;;;;4919190;29;20106;-86
2022/09/24 15:43:44;;;;;;;4.60;0.43;;;17.10;99.90;;;;;;4935418;29;20048;-88
2022/09/24 15:46:10;;;;;;;4.80;0.63;;;17.00;99.90;;;;;;4934994;29;20051;-88
2022/09/24 15:48:36;;;;;;;4.45;0.50;;;17.00;99.90;;;;;;4921902;29;20048;-86
2022/09/24 15:51:03;;;;;;;5.85;0.65;;;16.90;99.90;;;;;;4922952;29;20106;-86
2022/09/24 15:53:29;;;;;;;4.13;0.70;;;16.90;99.90;;;;;;4939693;29;20419;-83
2022/09/24 15:56:02;;;;;;;6.72;1.25;;;16.80;99.90;;;;;;4923194;29;20098;-87
2022/09/24 15:58:31;;;;;;;5.93;0.90;;;16.70;99.90;;;;;;4922788;29;20055;-86
2022/09/24 16:00:56;;;;;;;5.07;0.70;;;16.60;99.90;;;;;;4922473;29;20055;-90
2022/09/24 16:03:27;;;;;;;4.57;0.40;;;16.60;99.90;;;;;;4939558;29;20043;-86
2022/09/24 16:05:54;;;;;;;3.97;0.60;;;16.50;99.90;;;;;;4922381;29;20050;-87
2022/09/24 16:08:20;;;;;;;5.95;1.08;;;16.40;99.90;;;;;;4925457;29;20055;-86
2022/09/24 16:10:45;;;;;;;4.10;0.65;;;16.40;99.90;;;;;;4939835;29;20047;-85
2022/09/24 16:13:12;;;;;;;5.88;0.70;;;16.30;99.90;;;;;;4938345;29;20506;-87
2022/09/24 16:15:38;;;;;;;5.30;0.98;;;16.30;99.90;;;;;;4939518;29;20078;-86
2022/09/24 16:18:05;;;;;;;3.28;0.65;;;16.30;99.90;;;;;;4939531;29;20075;-87
2022/09/24 16:20:31;;;;;;;3.03;0.60;;;16.20;99.90;;;;;;4939280;29;20132;-87
2022/09/24 16:22:56;;;;;;;5.30;0.82;;;16.20;99.90;;;;;;4938389;29;20048;-85
2022/09/24 16:25:22;;;;;;;5.50;0.70;;;16.10;99.90;;;;;;4937853;29;20074;-85
2022/09/24 16:27:49;;;;;;;8.13;0.80;;;16.10;99.90;;;;;;4937791;29;20499;-86
2022/09/24 16:30:18;;;;;;;7.07;1.42;;;16.00;99.90;;;;;;4939105;29;20070;-85
2022/09/24 16:32:43;;;;;;;5.28;0.70;;;15.90;99.90;;;;;;4939240;29;20484;-84
2022/09/24 16:35:10;;;;;;;5.88;1.13;;;15.80;99.90;;;;;;4939196;29;20051;-86
2022/09/24 16:37:36;;;;;;;6.60;0.80;;;15.70;99.90;;;;;;4937704;29;20079;-86
2022/09/24 16:40:03;;;;;;;7.85;0.90;;;15.70;99.90;;;;;;4937934;29;20047;-85
2022/09/24 16:42:33;;;;;;;9.15;0.98;;;15.70;99.90;;;;;;4938805;29;20485;-85
2022/09/24 16:44:58;;;;;;;7.05;1.75;;;15.60;99.90;;;;;;4937510;29;20173;-87
2022/09/24 16:47:24;;;;;;;9.65;0.95;;;15.60;99.90;;;;;;4938848;29;20488;-86
2022/09/24 16:49:52;;;;;;;8.27;0.95;;;15.50;99.90;;;;;;4937592;29;20126;-85
2022/09/24 16:52:18;;;;;;;6.60;1.00;;;15.50;99.90;;;;;;4939468;29;20043;-86
2022/09/24 16:54:43;;;;;;;8.90;1.25;;;15.40;99.90;;;;;;4938803;29;20062;-87
2022/09/24 16:57:09;;;;;;;7.60;0.80;;;15.40;99.90;;;;;;4938165;29;20138;-86
2022/09/24 16:59:35;;;;;;;6.30;1.13;;;15.40;99.90;;;;;;4936488;29;20507;-87
2022/09/24 17:02:00;;;;;;;5.38;0.90;;;15.30;99.90;;;;;;4937248;29;20094;-87
2022/09/24 17:04:27;;;;;;;6.13;0.63;;;15.30;99.90;;;;;;4938450;29;20052;-86
2022/09/24 17:06:53;;;;;;;7.07;1.35;;;15.20;99.90;;;;;;4938549;29;20052;-86
2022/09/24 17:12:03;;;;;;;8.02;0.82;;;15.20;99.90;;;;;;4921132;29;20416;-85
2022/09/24 17:14:34;;;;;;;6.28;0.77;;;15.10;99.90;;;;;;4938345;29;20495;-86
2022/09/24 17:17:00;;;;;;;5.57;0.88;;;15.10;99.90;;;;;;4921090;29;20057;-86
2022/09/24 17:19:26;;;;;;;4.85;0.80;;;15.00;99.90;;;;;;4938097;29;20048;-85
2022/09/24 17:21:53;;;;;;;7.50;1.30;;;15.00;99.90;;;;;;4920940;29;20052;-87
2022/09/24 17:24:18;;;;;;;7.30;1.63;;;14.90;99.90;;;;;;4921282;29;20055;-85
2022/09/24 17:26:44;;;;;;;6.97;0.95;;;14.90;99.90;;;;;;4938093;29;20436;-86